createdAt,value
2018-03-29T00:01:02.706Z,43.1
2018-03-29T00:11:02.522Z,40.4
2018-03-29T00:21:02.493Z,42.5
2018-03-29T00:31:02.342Z,41.9
2018-03-29T00:41:03.185Z,44.1
2018-03-29T00:51:03.031Z,42.2
2018-03-29T01:01:02.879Z,43.9
2018-03-29T01:11:02.732Z,43.0
2018-03-29T01:21:02.652Z,42.5
2018-03-29T01:31:02.510Z,40.4
2018-03-29T01:41:02.372Z,40.5
2018-03-29T01:51:02.300Z,40.2
2018-03-29T02:01:03.187Z,40.4
2018-03-29T02:11:03.027Z,41.5
2018-03-29T02:21:03.017Z,38.9
2018-03-29T02:31:02.877Z,38.0
2018-03-29T02:41:02.714Z,38.1
2018-03-29T02:51:02.578Z,39.4
2018-03-29T03:01:02.963Z,42.1
2018-03-29T03:11:02.823Z,42.0
2018-03-29T03:21:02.840Z,40.3
2018-03-29T03:31:02.692Z,42.5
2018-03-29T03:41:02.576Z,45.3
2018-03-29T03:51:02.393Z,47.3
2018-03-29T04:01:03.234Z,42.3
2018-03-29T04:11:03.093Z,42.7
2018-03-29T04:21:03.097Z,42.5
2018-03-29T04:31:02.598Z,41.7
2018-03-29T04:41:02.400Z,44.8
2018-03-29T04:51:03.211Z,38.7
2018-03-29T05:01:03.046Z,40.6
2018-03-29T05:11:02.866Z,37.9
2018-03-29T05:21:02.845Z,39.6
2018-03-29T05:31:02.663Z,39.6
2018-03-29T05:41:02.495Z,38.5
2018-03-29T05:51:02.322Z,40.6
2018-03-29T06:01:03.152Z,42.9
2018-03-29T06:11:02.898Z,42.7
2018-03-29T06:21:03.002Z,40.0
2018-03-29T06:31:02.774Z,42.4
2018-03-29T06:41:02.465Z,41.5
2018-03-29T06:51:02.363Z,40.6
2018-03-29T07:01:03.137Z,39.7
2018-03-29T07:11:03.041Z,38.9
2018-03-29T07:21:02.973Z,40.4
2018-03-29T07:31:02.877Z,41.4
2018-03-29T07:41:02.686Z,43.8
2018-03-29T07:51:02.444Z,49.1
2018-03-29T08:01:03.281Z,51.1
2018-03-29T08:11:03.108Z,48.9
2018-03-29T08:21:03.072Z,42.9
2018-03-29T08:31:02.931Z,36.6
2018-03-29T08:41:02.796Z,35.7
2018-03-29T08:51:02.589Z,35.6
2018-03-29T09:01:02.429Z,40.0
2018-03-29T09:11:03.273Z,34.2
2018-03-29T09:21:03.251Z,30.4
2018-03-29T09:31:03.190Z,33.5
2018-03-29T09:41:03.050Z,32.4
2018-03-29T09:51:02.977Z,25.8
2018-03-29T10:01:02.804Z,18.0
2018-03-29T10:11:02.693Z,18.3
2018-03-29T10:21:02.693Z,18.7
2018-03-29T10:31:02.573Z,21.4
2018-03-29T10:41:02.459Z,22.0
2018-03-29T10:51:03.265Z,22.4
2018-03-29T11:01:03.069Z,19.8
2018-03-29T11:11:02.932Z,18.9
2018-03-29T11:21:02.852Z,17.2
2018-03-29T11:31:02.761Z,18.0
2018-03-29T11:41:02.688Z,19.6
2018-03-29T11:51:02.577Z,19.6
2018-03-29T12:01:02.542Z,15.9
2018-03-29T12:11:02.441Z,18.4
2018-03-29T12:21:02.458Z,17.8
2018-03-29T12:31:03.323Z,18.0
2018-03-29T12:41:03.178Z,16.0
2018-03-29T12:51:03.119Z,15.9
2018-03-29T13:01:03.089Z,16.1
2018-03-29T13:11:03.007Z,18.5
2018-03-29T13:21:03.013Z,20.9
2018-03-29T13:31:02.894Z,22.2
2018-03-29T13:41:02.739Z,26.3
2018-03-29T13:51:02.586Z,22.9
2018-03-29T14:01:02.468Z,22.6
2018-03-29T14:11:03.333Z,23.5
2018-03-29T14:21:03.361Z,25.1
2018-03-29T14:31:03.239Z,25.3
2018-03-29T14:41:03.218Z,26.5
2018-03-29T14:51:03.123Z,27.7
2018-03-29T15:01:03.046Z,28.4
2018-03-29T15:11:03.075Z,28.6
2018-03-29T15:21:03.074Z,28.5
2018-03-29T15:31:02.913Z,28.3
2018-03-29T15:41:02.893Z,29.3
2018-03-29T15:51:02.795Z,31.9
2018-03-29T16:01:02.692Z,29.7
2018-03-29T16:11:02.565Z,29.1
2018-03-29T16:21:02.567Z,33.2
2018-03-29T16:31:02.413Z,31.6
2018-03-29T16:41:03.221Z,31.5
2018-03-29T16:51:03.094Z,31.7
2018-03-29T17:01:03.020Z,32.0
2018-03-29T17:11:02.927Z,33.2
2018-03-29T17:21:03.012Z,34.0
2018-03-29T17:31:02.926Z,32.2
2018-03-29T17:41:02.791Z,31.9
2018-03-29T17:51:02.698Z,36.6
2018-03-29T18:01:02.608Z,42.4
2018-03-29T18:11:02.540Z,37.2
2018-03-29T18:21:02.731Z,44.3
2018-03-29T18:31:02.635Z,40.5
2018-03-29T18:41:02.517Z,53.1
2018-03-29T18:51:03.416Z,52.2
2018-03-29T19:01:03.229Z,53.5
2018-03-29T19:11:03.167Z,52.9
2018-03-29T19:21:03.163Z,44.6
2018-03-29T19:31:03.036Z,58.0
2018-03-29T19:41:02.959Z,94.5
2018-03-29T19:51:02.798Z,109.9
2018-03-29T20:01:02.781Z,91.4
2018-03-29T20:11:02.837Z,93.6
2018-03-29T20:21:02.785Z,89.9
2018-03-29T20:31:02.730Z,72.4
2018-03-29T20:41:02.638Z,79.7
2018-03-29T20:51:02.434Z,74.0
2018-03-29T21:01:03.283Z,76.9
2018-03-29T21:11:03.153Z,69.6
2018-03-29T21:21:03.130Z,49.9
2018-03-29T21:31:02.994Z,44.6
2018-03-29T21:41:02.872Z,40.7
2018-03-29T21:51:02.814Z,35.8
2018-03-29T22:01:02.648Z,39.8
2018-03-29T22:11:02.503Z,42.3
2018-03-29T22:21:02.450Z,35.9
2018-03-29T22:31:03.299Z,31.9
2018-03-29T22:41:03.135Z,32.8
2018-03-29T22:51:02.977Z,30.4
2018-03-29T23:01:02.808Z,33.5
2018-03-29T23:11:02.671Z,31.8
2018-03-29T23:21:02.676Z,27.3
2018-03-29T23:31:02.513Z,26.7
2018-03-29T23:41:03.355Z,25.8
2018-03-29T23:51:03.201Z,35.8
